createdAt,value
2023-01-29T00:00:52.350Z,37.33
2023-01-29T00:06:00.839Z,37.13
2023-01-29T00:11:10.584Z,37.20
2023-01-29T00:16:17.199Z,35.50
2023-01-29T00:21:24.919Z,35.95
2023-01-29T00:26:32.575Z,36.63
2023-01-29T00:31:39.353Z,36.73
2023-01-29T00:36:46.615Z,36.60
2023-01-29T00:42:12.248Z,36.65
2023-01-29T00:47:34.160Z,36.10
2023-01-29T00:52:44.602Z,38.47
2023-01-29T00:57:51.494Z,36.07
2023-01-29T01:03:06.989Z,35.80
2023-01-29T01:08:32.015Z,35.80
2023-01-29T01:13:40.212Z,36.07
2023-01-29T01:18:47.755Z,34.50
2023-01-29T01:23:54.993Z,35.97
2023-01-29T01:29:02.344Z,35.57
2023-01-29T01:34:09.657Z,35.90
2023-01-29T01:39:18.616Z,35.90
2023-01-29T01:45:01.546Z,35.90
2023-01-29T01:50:18.780Z,35.70
2023-01-29T01:55:29.360Z,34.23
2023-01-29T02:00:37.587Z,34.57
2023-01-29T02:06:02.625Z,35.70
2023-01-29T02:11:12.635Z,26.60
2023-01-29T02:16:20.959Z,35.73
2023-01-29T02:21:56.619Z,34.45
2023-01-29T02:27:10.818Z,35.15
2023-01-29T02:32:32.874Z,36.73
2023-01-29T02:38:00.630Z,36.13
2023-01-29T02:43:13.555Z,37.17
2023-01-29T02:48:25.220Z,37.10
2023-01-29T02:53:55.584Z,37.45
2023-01-29T02:59:06.754Z,36.10
2023-01-29T03:04:18.261Z,36.60
2023-01-29T03:09:39.071Z,36.53
2023-01-29T03:15:06.570Z,35.80
2023-01-29T03:20:18.489Z,37.00
2023-01-29T03:25:46.801Z,36.77
2023-01-29T03:31:18.498Z,36.63
2023-01-29T03:36:35.020Z,35.33
2023-01-29T03:42:06.223Z,34.70
2023-01-29T03:47:40.529Z,34.63
2023-01-29T03:53:06.630Z,34.97
2023-01-29T03:58:48.199Z,34.55
2023-01-29T04:04:27.975Z,34.03
2023-01-29T04:09:42.029Z,33.00
2023-01-29T04:14:51.282Z,32.87
2023-01-29T04:19:58.607Z,33.50
2023-01-29T04:25:10.602Z,31.97
2023-01-29T04:30:28.202Z,31.23
2023-01-29T04:35:47.830Z,31.40
2023-01-29T04:41:09.123Z,32.17
2023-01-29T04:46:29.398Z,31.57
2023-01-29T04:52:05.657Z,30.80
2023-01-29T04:57:26.502Z,31.50
2023-01-29T05:02:37.929Z,30.77
2023-01-29T05:07:47.173Z,32.33
2023-01-29T05:12:59.355Z,30.57
2023-01-29T05:18:09.226Z,31.47
2023-01-29T05:23:22.268Z,30.87
2023-01-29T05:28:29.622Z,30.30
2023-01-29T05:33:36.918Z,30.77
2023-01-29T05:38:44.706Z,29.90
2023-01-29T05:43:51.470Z,31.93
2023-01-29T05:48:58.455Z,31.30
2023-01-29T05:54:06.530Z,30.53
2023-01-29T05:59:17.049Z,30.50
2023-01-29T06:04:23.720Z,30.97
2023-01-29T06:09:32.088Z,30.23
2023-01-29T06:14:39.387Z,29.70
2023-01-29T06:19:46.885Z,30.12
2023-01-29T06:24:54.074Z,28.97
2023-01-29T06:30:03.185Z,29.13
2023-01-29T06:35:11.045Z,30.50
2023-01-29T06:40:20.171Z,28.67
2023-01-29T06:45:28.686Z,29.87
2023-01-29T06:50:36.392Z,28.97
2023-01-29T06:55:43.048Z,30.05
2023-01-29T07:00:50.879Z,29.57
2023-01-29T07:06:00.699Z,31.37
2023-01-29T07:11:10.739Z,29.43
2023-01-29T07:16:18.406Z,29.40
2023-01-29T07:21:27.579Z,29.50
2023-01-29T07:26:36.651Z,30.30
2023-01-29T07:31:44.175Z,30.13
2023-01-29T07:36:53.221Z,30.32
2023-01-29T07:42:00.332Z,31.93
2023-01-29T07:47:10.394Z,34.00
2023-01-29T07:52:22.520Z,38.67
2023-01-29T07:57:30.848Z,40.88
2023-01-29T08:02:39.119Z,41.55
2023-01-29T08:08:00.865Z,42.80
2023-01-29T08:13:04.522Z,43.93
2023-01-29T08:18:11.396Z,38.67
2023-01-29T08:23:19.669Z,43.70
2023-01-29T08:28:26.805Z,40.90
2023-01-29T08:33:39.147Z,44.33
2023-01-29T08:38:44.653Z,53.90
2023-01-29T08:43:53.652Z,33.63
2023-01-29T08:49:03.836Z,43.50
2023-01-29T08:54:10.839Z,54.60
2023-01-29T08:59:19.309Z,42.70
2023-01-29T09:04:27.048Z,37.60
2023-01-29T09:09:33.916Z,35.50
2023-01-29T09:14:41.526Z,34.70
2023-01-29T09:19:48.645Z,36.20
2023-01-29T09:24:55.304Z,98.70
2023-01-29T09:30:03.395Z,48.40
2023-01-29T09:35:11.219Z,51.50
2023-01-29T09:40:46.533Z,54.13
2023-01-29T09:46:03.177Z,47.13
2023-01-29T09:56:23.901Z,38.90
2023-01-29T10:01:51.313Z,39.38
2023-01-29T10:07:20.658Z,39.00
2023-01-29T10:12:50.086Z,39.33
2023-01-29T10:18:30.161Z,40.53
2023-01-29T10:23:49.461Z,40.13
2023-01-29T10:28:58.723Z,41.83
2023-01-29T10:34:18.700Z,43.03
2023-01-29T10:39:27.881Z,43.28
2023-01-29T10:44:49.208Z,44.47
2023-01-29T10:50:21.135Z,48.30
2023-01-29T10:56:21.981Z,48.40
2023-01-29T11:01:20.873Z,50.83
2023-01-29T11:06:35.452Z,53.17
2023-01-29T11:12:02.169Z,55.07
2023-01-29T11:17:18.416Z,58.30
2023-01-29T11:22:28.920Z,67.22
2023-01-29T11:27:46.061Z,67.55
2023-01-29T11:33:01.473Z,64.92
2023-01-29T11:38:30.773Z,60.13
2023-01-29T11:43:38.959Z,59.97
2023-01-29T11:48:50.554Z,57.93
2023-01-29T11:54:03.349Z,56.87
2023-01-29T11:59:30.732Z,58.60
2023-01-29T12:04:41.223Z,85.42
2023-01-29T12:10:00.875Z,63.47
2023-01-29T12:15:21.085Z,72.03
2023-01-29T12:20:44.684Z,61.48
2023-01-29T12:26:08.513Z,61.50
2023-01-29T12:31:39.942Z,65.23
2023-01-29T12:36:56.877Z,61.00
2023-01-29T12:42:18.182Z,65.25
2023-01-29T12:47:38.735Z,52.67
2023-01-29T12:52:50.043Z,48.47
2023-01-29T12:58:05.426Z,49.63
2023-01-29T13:03:37.157Z,50.17
2023-01-29T13:08:53.932Z,53.57
2023-01-29T13:14:26.643Z,51.40
2023-01-29T13:19:46.694Z,51.85
2023-01-29T13:25:04.684Z,52.03
2023-01-29T13:30:06.069Z,55.20
2023-01-29T13:35:19.109Z,52.97
2023-01-29T13:40:35.181Z,49.97
2023-01-29T13:45:48.102Z,59.20
2023-01-29T13:50:57.817Z,78.17
2023-01-29T13:56:37.829Z,76.83
2023-01-29T14:01:55.331Z,61.93
2023-01-29T14:07:03.986Z,62.50
2023-01-29T14:12:27.397Z,66.13
2023-01-29T14:17:34.928Z,73.70
2023-01-29T14:22:42.516Z,70.87
2023-01-29T14:27:50.846Z,68.27
2023-01-29T14:32:57.877Z,66.40
2023-01-29T14:38:08.435Z,64.50
2023-01-29T14:43:23.899Z,65.37
2023-01-29T14:48:50.172Z,64.30
2023-01-29T14:54:22.621Z,65.30
2023-01-29T14:59:37.806Z,60.80
2023-01-29T15:04:51.094Z,60.53
2023-01-29T15:10:23.225Z,61.80
2023-01-29T15:16:17.401Z,59.25
2023-01-29T15:21:25.110Z,58.28
2023-01-29T15:26:32.192Z,59.87
2023-01-29T15:31:43.140Z,61.85
2023-01-29T15:36:51.303Z,61.70
2023-01-29T15:42:12.636Z,64.50
2023-01-29T15:47:22.799Z,65.55
2023-01-29T15:52:35.242Z,72.97
2023-01-29T15:57:43.759Z,72.27
2023-01-29T16:02:51.327Z,78.30
2023-01-29T16:08:00.142Z,74.90
2023-01-29T16:13:07.369Z,67.97
2023-01-29T16:18:35.250Z,72.10
2023-01-29T16:23:49.213Z,55.83
2023-01-29T16:29:08.499Z,60.28
2023-01-29T16:34:33.483Z,61.88
2023-01-29T16:39:45.986Z,75.55
2023-01-29T16:44:57.045Z,71.40
2023-01-29T16:50:46.233Z,61.17
2023-01-29T16:55:49.966Z,63.90
2023-01-29T17:01:03.618Z,72.27
2023-01-29T17:06:22.237Z,69.70
2023-01-29T17:11:41.906Z,59.47
2023-01-29T17:16:57.247Z,53.93
2023-01-29T17:22:07.402Z,56.73
2023-01-29T17:27:23.790Z,58.67
2023-01-29T17:32:44.374Z,56.27
2023-01-29T17:37:41.650Z,48.57
2023-01-29T17:42:49.016Z,51.20
2023-01-29T17:47:55.959Z,53.17
2023-01-29T17:53:03.055Z,54.53
2023-01-29T17:58:20.612Z,56.27
2023-01-29T18:03:27.957Z,103.67
2023-01-29T18:08:38.832Z,62.88
2023-01-29T18:13:45.789Z,73.07
2023-01-29T18:18:53.741Z,57.03
2023-01-29T18:24:01.135Z,59.27
2023-01-29T18:29:10.326Z,59.90
2023-01-29T18:34:17.043Z,74.27
2023-01-29T18:39:24.859Z,54.73
2023-01-29T18:44:32.043Z,48.83
2023-01-29T18:49:40.209Z,52.77
2023-01-29T18:54:47.210Z,48.13
2023-01-29T18:59:54.975Z,49.53
2023-01-29T19:05:01.837Z,50.90
2023-01-29T19:10:11.169Z,48.78
2023-01-29T19:15:19.802Z,47.33
2023-01-29T19:20:27.903Z,46.57
2023-01-29T19:25:40.338Z,45.83
2023-01-29T19:30:49.963Z,49.90
2023-01-29T19:36:00.799Z,52.53
2023-01-29T19:41:10.213Z,53.30
2023-01-29T19:46:17.968Z,49.00
2023-01-29T19:51:29.319Z,48.85
2023-01-29T19:56:38.170Z,48.33
2023-01-29T20:01:45.580Z,48.93
2023-01-29T20:06:54.039Z,47.77
2023-01-29T20:12:02.719Z,50.93
2023-01-29T20:17:09.451Z,49.53
2023-01-29T20:22:16.653Z,48.87
2023-01-29T20:27:24.317Z,48.03
2023-01-29T20:32:33.255Z,47.88
2023-01-29T20:37:40.763Z,48.73
2023-01-29T20:42:48.047Z,48.20
2023-01-29T20:47:55.797Z,48.37
2023-01-29T20:53:04.481Z,47.17
2023-01-29T20:58:11.784Z,53.87
2023-01-29T21:08:26.946Z,57.93
2023-01-29T21:13:34.847Z,56.60
2023-01-29T21:18:42.759Z,56.73
2023-01-29T21:23:50.913Z,52.47
2023-01-29T21:28:57.913Z,49.97
2023-01-29T21:34:07.634Z,46.37
2023-01-29T21:39:21.319Z,48.30
2023-01-29T21:44:28.814Z,47.05
2023-01-29T21:49:36.699Z,46.73
2023-01-29T21:54:46.196Z,44.40
2023-01-29T21:59:55.988Z,44.80
2023-01-29T22:05:18.023Z,44.05
2023-01-29T22:10:13.866Z,43.83
2023-01-29T22:15:23.772Z,42.83
2023-01-29T22:20:34.250Z,49.75
2023-01-29T22:25:44.141Z,50.80
2023-01-29T22:30:52.526Z,50.83
2023-01-29T22:36:00.398Z,47.30
2023-01-29T22:41:09.899Z,48.90
2023-01-29T22:46:17.571Z,53.53
2023-01-29T22:51:26.012Z,52.17
2023-01-29T22:56:33.959Z,44.53
2023-01-29T23:01:40.627Z,45.00
2023-01-29T23:06:48.077Z,45.40
2023-01-29T23:11:55.154Z,40.87
2023-01-29T23:17:02.672Z,42.50
2023-01-29T23:22:10.679Z,44.93
2023-01-29T23:27:17.463Z,41.87
2023-01-29T23:32:25.159Z,44.43
2023-01-29T23:37:32.641Z,45.03
2023-01-29T23:42:39.915Z,42.40
2023-01-29T23:47:47.188Z,44.07
2023-01-29T23:52:55.384Z,40.50
2023-01-29T23:58:03.135Z,42.10
